sensor_id;sensor_type;location;lat;lon;timestamp;pressure;altitude;pressure_sealevel;temperature;humidity
49216;BME280;45943;53.148;8.204;2023-04-26T00:00:03;101696.69;;;11.74;83.01
49216;BME280;45943;53.148;8.204;2023-04-26T00:02:33;101690.47;;;11.73;83.37
49216;BME280;45943;53.148;8.204;2023-04-26T00:05:00;101696.34;;;11.78;83.00
49216;BME280;45943;53.148;8.204;2023-04-26T00:07:30;101707.09;;;11.78;82.47
49216;BME280;45943;53.148;8.204;2023-04-26T00:09:56;101706.16;;;11.80;82.76
49216;BME280;45943;53.148;8.204;2023-04-26T00:12:22;101716.72;;;11.83;81.78
49216;BME280;45943;53.148;8.204;2023-04-26T00:14:48;101734.44;;;11.85;82.52
49216;BME280;45943;53.148;8.204;2023-04-26T00:17:14;101726.78;;;11.79;84.84
49216;BME280;45943;53.148;8.204;2023-04-26T00:19:40;101716.72;;;11.83;88.94
49216;BME280;45943;53.148;8.204;2023-04-26T00:22:06;101699.94;;;11.66;94.96
49216;BME280;45943;53.148;8.204;2023-04-26T00:24:33;101684.66;;;11.67;95.40
49216;BME280;45943;53.148;8.204;2023-04-26T00:26:59;101698.94;;;11.67;100.00
49216;BME280;45943;53.148;8.204;2023-04-26T00:29:26;101707.22;;;11.77;98.02
49216;BME280;45943;53.148;8.204;2023-04-26T00:31:52;101705.72;;;11.73;100.00
49216;BME280;45943;53.148;8.204;2023-04-26T00:34:18;101707.03;;;11.55;100.00
49216;BME280;45943;53.148;8.204;2023-04-26T00:36:44;101707.16;;;11.53;100.00
49216;BME280;45943;53.148;8.204;2023-04-26T00:39:10;101702.75;;;11.52;100.00
49216;BME280;45943;53.148;8.204;2023-04-26T00:41:36;101707.03;;;11.55;100.00
49216;BME280;45943;53.148;8.204;2023-04-26T00:44:02;101705.75;;;11.60;100.00
49216;BME280;45943;53.148;8.204;2023-04-26T00:46:28;101716.28;;;11.63;100.00
49216;BME280;45943;53.148;8.204;2023-04-26T00:48:55;101708.09;;;11.65;100.00
49216;BME280;45943;53.148;8.204;2023-04-26T00:51:22;101718.09;;;11.63;100.00
49216;BME280;45943;53.148;8.204;2023-04-26T00:53:48;101720.91;;;11.61;100.00
49216;BME280;45943;53.148;8.204;2023-04-26T00:56:14;101724.13;;;11.66;100.00
49216;BME280;45943;53.148;8.204;2023-04-26T00:58:41;101719.06;;;11.74;100.00
49216;BME280;45943;53.148;8.204;2023-04-26T01:01:08;101712.59;;;11.77;100.00
49216;BME280;45943;53.148;8.204;2023-04-26T01:03:34;101710.03;;;11.75;100.00
49216;BME280;45943;53.148;8.204;2023-04-26T01:06:00;101708.31;;;11.74;99.76
49216;BME280;45943;53.148;8.204;2023-04-26T01:08:26;101703.56;;;11.78;99.71
49216;BME280;45943;53.148;8.204;2023-04-26T01:10:53;101708.31;;;11.74;98.34
49216;BME280;45943;53.148;8.204;2023-04-26T01:13:19;101709.28;;;11.73;100.00
49216;BME280;45943;53.148;8.204;2023-04-26T01:15:46;101711.75;;;11.64;100.00
49216;BME280;45943;53.148;8.204;2023-04-26T01:18:13;101711.66;;;11.53;100.00
49216;BME280;45943;53.148;8.204;2023-04-26T01:20:40;101723.81;;;11.45;100.00
49216;BME280;45943;53.148;8.204;2023-04-26T01:23:07;101726.16;;;11.50;100.00
49216;BME280;45943;53.148;8.204;2023-04-26T01:25:34;101725.09;;;11.53;99.78
49216;BME280;45943;53.148;8.204;2023-04-26T01:28:01;101716.19;;;11.52;100.00
49216;BME280;45943;53.148;8.204;2023-04-26T01:30:27;101723.06;;;11.43;99.86
49216;BME280;45943;53.148;8.204;2023-04-26T01:32:53;101719.19;;;11.47;100.00
49216;BME280;45943;53.148;8.204;2023-04-26T01:35:19;101722.94;;;11.45;99.85
49216;BME280;45943;53.148;8.204;2023-04-26T01:37:45;101725.53;;;11.46;99.65
49216;BME280;45943;53.148;8.204;2023-04-26T01:40:11;101725.94;;;11.28;99.57
49216;BME280;45943;53.148;8.204;2023-04-26T01:42:37;101722.50;;;11.26;100.00
49216;BME280;45943;53.148;8.204;2023-04-26T01:45:03;101723.38;;;11.26;100.00
49216;BME280;45943;53.148;8.204;2023-04-26T01:47:30;101728.63;;;11.28;100.00
49216;BME280;45943;53.148;8.204;2023-04-26T01:49:56;101723.81;;;11.33;100.00
49216;BME280;45943;53.148;8.204;2023-04-26T01:52:22;101717.25;;;11.37;100.00
49216;BME280;45943;53.148;8.204;2023-04-26T01:54:48;101721.75;;;11.24;100.00
49216;BME280;45943;53.148;8.204;2023-04-26T01:57:14;101713.59;;;11.25;100.00
49216;BME280;45943;53.148;8.204;2023-04-26T01:59:40;101707.13;;;11.28;100.00
49216;BME280;45943;53.148;8.204;2023-04-26T02:02:06;101709.81;;;11.28;100.00
49216;BME280;45943;53.148;8.204;2023-04-26T02:04:32;101710.56;;;11.30;100.00
49216;BME280;45943;53.148;8.204;2023-04-26T02:06:58;101707.34;;;11.37;100.00
49216;BME280;45943;53.148;8.204;2023-04-26T02:09:24;101700.59;;;11.44;99.94
49216;BME280;45943;53.148;8.204;2023-04-26T02:11:50;101712.72;;;11.50;100.00
49216;BME280;45943;53.148;8.204;2023-04-26T02:14:16;101710.25;;;11.47;99.26
49216;BME280;45943;53.148;8.204;2023-04-26T02:16:42;101707.25;;;11.39;100.00
49216;BME280;45943;53.148;8.204;2023-04-26T02:19:09;101708.66;;;11.32;100.00
49216;BME280;45943;53.148;8.204;2023-04-26T02:24:25;101716.72;;;11.32;100.00
49216;BME280;45943;53.148;8.204;2023-04-26T02:26:51;101712.00;;;11.23;100.00
49216;BME280;45943;53.148;8.204;2023-04-26T02:29:19;101713.69;;;11.24;100.00
49216;BME280;45943;53.148;8.204;2023-04-26T02:31:45;101712.84;;;11.23;100.00
49216;BME280;45943;53.148;8.204;2023-04-26T02:34:13;101709.72;;;11.16;100.00
49216;BME280;45943;53.148;8.204;2023-04-26T02:36:39;101707.88;;;11.17;100.00
49216;BME280;45943;53.148;8.204;2023-04-26T02:39:05;101710.34;;;11.20;100.00
49216;BME280;45943;53.148;8.204;2023-04-26T02:41:32;101717.56;;;11.19;100.00
49216;BME280;45943;53.148;8.204;2023-04-26T02:43:58;101711.44;;;11.17;100.00
49216;BME280;45943;53.148;8.204;2023-04-26T02:46:24;101721.84;;;11.09;100.00
49216;BME280;45943;53.148;8.204;2023-04-26T02:48:50;101715.38;;;10.99;100.00
49216;BME280;45943;53.148;8.204;2023-04-26T02:51:16;101711.59;;;10.89;100.00
49216;BME280;45943;53.148;8.204;2023-04-26T02:53:42;101710.84;;;10.87;100.00
49216;BME280;45943;53.148;8.204;2023-04-26T02:56:08;101719.00;;;10.85;100.00
49216;BME280;45943;53.148;8.204;2023-04-26T02:58:34;101719.00;;;10.85;100.00
49216;BME280;45943;53.148;8.204;2023-04-26T03:01:00;101729.25;;;10.66;100.00
49216;BME280;45943;53.148;8.204;2023-04-26T03:03:26;101719.06;;;10.71;100.00
49216;BME280;45943;53.148;8.204;2023-04-26T03:05:52;101723.56;;;10.71;100.00
49216;BME280;45943;53.148;8.204;2023-04-26T03:08:18;101724.53;;;10.70;100.00
49216;BME280;45943;53.148;8.204;2023-04-26T03:10:44;101720.03;;;10.70;100.00
49216;BME280;45943;53.148;8.204;2023-04-26T03:13:11;101717.81;;;10.77;100.00
49216;BME280;45943;53.148;8.204;2023-04-26T03:15:37;101706.75;;;10.81;100.00
49216;BME280;45943;53.148;8.204;2023-04-26T03:18:03;101710.94;;;10.73;100.00
49216;BME280;45943;53.148;8.204;2023-04-26T03:20:29;101713.94;;;10.81;98.20
49216;BME280;45943;53.148;8.204;2023-04-26T03:22:55;101711.19;;;10.82;100.00
49216;BME280;45943;53.148;8.204;2023-04-26T03:25:21;101713.28;;;10.77;100.00
49216;BME280;45943;53.148;8.204;2023-04-26T03:27:47;101706.72;;;10.69;100.00
49216;BME280;45943;53.148;8.204;2023-04-26T03:30:13;101703.41;;;10.78;100.00
49216;BME280;45943;53.148;8.204;2023-04-26T03:32:40;101710.31;;;10.82;100.00
49216;BME280;45943;53.148;8.204;2023-04-26T03:35:06;101713.53;;;10.87;100.00
49216;BME280;45943;53.148;8.204;2023-04-26T03:37:32;101713.94;;;10.81;100.00
49216;BME280;45943;53.148;8.204;2023-04-26T03:39:58;101718.16;;;10.85;100.00
49216;BME280;45943;53.148;8.204;2023-04-26T03:42:24;101736.63;;;10.89;100.00
49216;BME280;45943;53.148;8.204;2023-04-26T03:44:50;101737.47;;;10.90;100.00
49216;BME280;45943;53.148;8.204;2023-04-26T03:47:17;101739.53;;;10.86;100.00
49216;BME280;45943;53.148;8.204;2023-04-26T03:49:43;101741.22;;;10.87;100.00
49216;BME280;45943;53.148;8.204;2023-04-26T03:52:09;101731.25;;;10.89;100.00
49216;BME280;45943;53.148;8.204;2023-04-26T03:54:35;101734.78;;;10.90;100.00
49216;BME280;45943;53.148;8.204;2023-04-26T03:57:01;101711.47;;;10.78;100.00
49216;BME280;45943;53.148;8.204;2023-04-26T03:59:27;101705.25;;;10.77;100.00
49216;BME280;45943;53.148;8.204;2023-04-26T04:01:53;101725.16;;;10.60;100.00
49216;BME280;45943;53.148;8.204;2023-04-26T04:04:19;101716.19;;;10.47;100.00
49216;BME280;45943;53.148;8.204;2023-04-26T04:06:46;101711.69;;;10.48;100.00
49216;BME280;45943;53.148;8.204;2023-04-26T04:09:12;101712.34;;;10.51;100.00
49216;BME280;45943;53.148;8.204;2023-04-26T04:11:38;101726.41;;;10.42;100.00
49216;BME280;45943;53.148;8.204;2023-04-26T04:14:04;101720.50;;;10.50;100.00
49216;BME280;45943;53.148;8.204;2023-04-26T04:16:30;101725.56;;;10.54;100.00
49216;BME280;45943;53.148;8.204;2023-04-26T04:18:56;101737.16;;;10.55;100.00
49216;BME280;45943;53.148;8.204;2023-04-26T04:21:22;101735.13;;;10.58;100.00
49216;BME280;45943;53.148;8.204;2023-04-26T04:23:48;101729.63;;;10.47;100.00
49216;BME280;45943;53.148;8.204;2023-04-26T04:26:14;101730.78;;;10.43;100.00
49216;BME280;45943;53.148;8.204;2023-04-26T04:28:40;101730.19;;;10.52;100.00
49216;BME280;45943;53.148;8.204;2023-04-26T04:31:06;101713.31;;;10.50;100.00
49216;BME280;45943;53.148;8.204;2023-04-26T04:33:34;101699.72;;;10.53;100.00
49216;BME280;45943;53.148;8.204;2023-04-26T04:36:00;101715.34;;;10.47;100.00
49216;BME280;45943;53.148;8.204;2023-04-26T04:38:26;101703.16;;;10.55;100.00
49216;BME280;45943;53.148;8.204;2023-04-26T04:40:54;101709.16;;;10.59;100.00
49216;BME280;45943;53.148;8.204;2023-04-26T04:43:19;101714.88;;;10.67;100.00
49216;BME280;45943;53.148;8.204;2023-04-26T04:45:46;101718.13;;;10.72;100.00
49216;BME280;45943;53.148;8.204;2023-04-26T04:48:14;101718.78;;;10.76;100.00
49216;BME280;45943;53.148;8.204;2023-04-26T04:50:40;101729.28;;;10.79;100.00
49216;BME280;45943;53.148;8.204;2023-04-26T04:53:09;101726.94;;;10.74;100.00
49216;BME280;45943;53.148;8.204;2023-04-26T04:55:35;101729.91;;;10.70;100.00
49216;BME280;45943;53.148;8.204;2023-04-26T04:58:04;101733.56;;;10.69;100.00
49216;BME280;45943;53.148;8.204;2023-04-26T05:00:31;101728.66;;;10.75;100.00
49216;BME280;45943;53.148;8.204;2023-04-26T05:02:57;101736.25;;;10.81;100.00
49216;BME280;45943;53.148;8.204;2023-04-26T05:05:23;101734.72;;;10.91;100.00
49216;BME280;45943;53.148;8.204;2023-04-26T05:07:49;101734.38;;;10.96;100.00
49216;BME280;45943;53.148;8.204;2023-04-26T05:10:15;101731.34;;;10.88;100.00
49216;BME280;45943;53.148;8.204;2023-04-26T05:12:41;101730.59;;;10.86;100.00
49216;BME280;45943;53.148;8.204;2023-04-26T05:15:07;101739.75;;;10.96;100.00
49216;BME280;45943;53.148;8.204;2023-04-26T05:17:33;101754.03;;;10.97;100.00
49216;BME280;45943;53.148;8.204;2023-04-26T05:19:59;101745.69;;;11.01;100.00
49216;BME280;45943;53.148;8.204;2023-04-26T05:22:31;101752.22;;;11.10;100.00
49216;BME280;45943;53.148;8.204;2023-04-26T05:24:57;101751.69;;;11.05;100.00
49216;BME280;45943;53.148;8.204;2023-04-26T05:27:22;101740.63;;;11.09;100.00
49216;BME280;45943;53.148;8.204;2023-04-26T05:29:48;101748.06;;;11.18;100.00
49216;BME280;45943;53.148;8.204;2023-04-26T05:32:14;101743.03;;;11.27;100.00
49216;BME280;45943;53.148;8.204;2023-04-26T05:34:40;101742.28;;;11.25;100.00
49216;BME280;45943;53.148;8.204;2023-04-26T05:37:06;101745.47;;;11.17;100.00
49216;BME280;45943;53.148;8.204;2023-04-26T05:39:32;101738.06;;;11.08;100.00
49216;BME280;45943;53.148;8.204;2023-04-26T05:41:58;101742.44;;;10.96;100.00
49216;BME280;45943;53.148;8.204;2023-04-26T05:44:24;101746.94;;;10.96;100.00
49216;BME280;45943;53.148;8.204;2023-04-26T05:46:50;101745.00;;;10.98;100.00
49216;BME280;45943;53.148;8.204;2023-04-26T05:49:16;101749.75;;;11.07;100.00
49216;BME280;45943;53.148;8.204;2023-04-26T05:51:42;101750.38;;;10.98;100.00
49216;BME280;45943;53.148;8.204;2023-04-26T05:54:08;101748.31;;;10.88;100.00
49216;BME280;45943;53.148;8.204;2023-04-26T05:56:34;101750.16;;;10.88;100.00
49216;BME280;45943;53.148;8.204;2023-04-26T05:59:00;101747.69;;;10.85;100.00
49216;BME280;45943;53.148;8.204;2023-04-26T06:01:26;101755.41;;;10.89;100.00
49216;BME280;45943;53.148;8.204;2023-04-26T06:03:52;101748.78;;;10.95;100.00
49216;BME280;45943;53.148;8.204;2023-04-26T06:06:18;101751.22;;;10.85;100.00
49216;BME280;45943;53.148;8.204;2023-04-26T06:08:44;101756.47;;;10.87;100.00
49216;BME280;45943;53.148;8.204;2023-04-26T06:11:11;101755.50;;;10.88;100.00
49216;BME280;45943;53.148;8.204;2023-04-26T06:13:37;101758.44;;;10.98;100.00
49216;BME280;45943;53.148;8.204;2023-04-26T06:16:03;101746.09;;;10.95;100.00
49216;BME280;45943;53.148;8.204;2023-04-26T06:18:29;101756.31;;;11.03;100.00
49216;BME280;45943;53.148;8.204;2023-04-26T06:20:55;101756.00;;;11.07;100.00
49216;BME280;45943;53.148;8.204;2023-04-26T06:23:21;101753.94;;;11.11;100.00
49216;BME280;45943;53.148;8.204;2023-04-26T06:25:47;101762.22;;;11.20;100.00
49216;BME280;45943;53.148;8.204;2023-04-26T06:28:13;101765.34;;;11.14;100.00
49216;BME280;45943;53.148;8.204;2023-04-26T06:30:40;101763.31;;;11.18;100.00
49216;BME280;45943;53.148;8.204;2023-04-26T06:33:07;101771.38;;;11.18;100.00
49216;BME280;45943;53.148;8.204;2023-04-26T06:35:38;101769.34;;;11.22;100.00
49216;BME280;45943;53.148;8.204;2023-04-26T06:38:05;101773.09;;;11.19;100.00
49216;BME280;45943;53.148;8.204;2023-04-26T06:40:32;101766.03;;;11.31;100.00
49216;BME280;45943;53.148;8.204;2023-04-26T06:42:58;101769.13;;;11.37;100.00
49216;BME280;45943;53.148;8.204;2023-04-26T06:45:24;101771.41;;;11.56;100.00
49216;BME280;45943;53.148;8.204;2023-04-26T06:47:50;101764.88;;;11.60;100.00
49216;BME280;45943;53.148;8.204;2023-04-26T06:50:17;101776.25;;;11.76;100.00
49216;BME280;45943;53.148;8.204;2023-04-26T06:52:43;101777.81;;;11.81;100.00
49216;BME280;45943;53.148;8.204;2023-04-26T06:55:09;101766.81;;;11.84;100.00
49216;BME280;45943;53.148;8.204;2023-04-26T06:57:35;101766.59;;;11.87;98.25
49216;BME280;45943;53.148;8.204;2023-04-26T07:00:02;101770.69;;;11.92;100.00
49216;BME280;45943;53.148;8.204;2023-04-26T07:02:29;101772.59;;;12.03;100.00
49216;BME280;45943;53.148;8.204;2023-04-26T07:04:54;101773.56;;;12.02;100.00
49216;BME280;45943;53.148;8.204;2023-04-26T07:07:20;101780.00;;;11.99;95.53
49216;BME280;45943;53.148;8.204;2023-04-26T07:09:46;101770.44;;;12.08;94.51
49216;BME280;45943;53.148;8.204;2023-04-26T07:12:12;101772.88;;;12.24;97.78
49216;BME280;45943;53.148;8.204;2023-04-26T07:14:39;101778.09;;;12.38;100.00
49216;BME280;45943;53.148;8.204;2023-04-26T07:17:06;101779.31;;;12.34;93.20
49216;BME280;45943;53.148;8.204;2023-04-26T07:19:32;101775.22;;;12.28;90.35
49216;BME280;45943;53.148;8.204;2023-04-26T07:21:58;101779.34;;;12.21;89.19
49216;BME280;45943;53.148;8.204;2023-04-26T07:24:24;101781.38;;;12.30;89.59
49216;BME280;45943;53.148;8.204;2023-04-26T07:26:50;101776.44;;;12.24;90.45
49216;BME280;45943;53.148;8.204;2023-04-26T07:29:16;101780.34;;;11.95;89.96
49216;BME280;45943;53.148;8.204;2023-04-26T07:31:45;101772.69;;;12.14;92.06
49216;BME280;45943;53.148;8.204;2023-04-26T07:34:12;101785.13;;;12.41;93.28
49216;BME280;45943;53.148;8.204;2023-04-26T07:36:40;101781.88;;;12.35;88.96
49216;BME280;45943;53.148;8.204;2023-04-26T07:39:07;101780.28;;;12.33;87.78
49216;BME280;45943;53.148;8.204;2023-04-26T07:41:35;101783.78;;;12.46;89.43
49216;BME280;45943;53.148;8.204;2023-04-26T07:44:01;101778.88;;;12.40;88.20
49216;BME280;45943;53.148;8.204;2023-04-26T07:46:27;101776.19;;;12.64;90.05
49216;BME280;45943;53.148;8.204;2023-04-26T07:48:53;101769.03;;;12.76;84.08
49216;BME280;45943;53.148;8.204;2023-04-26T07:51:19;101775.78;;;12.81;84.56
49216;BME280;45943;53.148;8.204;2023-04-26T07:53:45;101777.91;;;12.89;82.85
49216;BME280;45943;53.148;8.204;2023-04-26T07:56:11;101778.13;;;12.86;77.57
49216;BME280;45943;53.148;8.204;2023-04-26T07:58:38;101774.28;;;13.01;82.85
49216;BME280;45943;53.148;8.204;2023-04-26T08:01:04;101781.03;;;13.07;79.98
49216;BME280;45943;53.148;8.204;2023-04-26T08:03:30;101783.84;;;13.05;71.15
49216;BME280;45943;53.148;8.204;2023-04-26T08:05:57;101782.94;;;13.17;69.79
49216;BME280;45943;53.148;8.204;2023-04-26T08:08:26;101781.00;;;13.19;67.97
49216;BME280;45943;53.148;8.204;2023-04-26T08:10:53;101774.78;;;13.30;65.09
49216;BME280;45943;53.148;8.204;2023-04-26T08:13:20;101770.88;;;13.45;65.03
49216;BME280;45943;53.148;8.204;2023-04-26T08:15:47;101769.44;;;13.53;65.50
49216;BME280;45943;53.148;8.204;2023-04-26T08:18:13;101781.34;;;13.50;65.80
49216;BME280;45943;53.148;8.204;2023-04-26T08:20:39;101768.34;;;13.55;63.78
49216;BME280;45943;53.148;8.204;2023-04-26T08:23:05;101773.38;;;13.60;63.07
49216;BME280;45943;53.148;8.204;2023-04-26T08:25:31;101773.13;;;13.63;61.85
49216;BME280;45943;53.148;8.204;2023-04-26T08:27:59;101779.75;;;13.59;61.02
49216;BME280;45943;53.148;8.204;2023-04-26T08:30:26;101775.44;;;13.56;60.92
49216;BME280;45943;53.148;8.204;2023-04-26T08:32:52;101774.13;;;13.62;60.67
49216;BME280;45943;53.148;8.204;2023-04-26T08:35:18;101785.38;;;13.56;60.08
49216;BME280;45943;53.148;8.204;2023-04-26T08:37:46;101773.13;;;13.52;57.77
49216;BME280;45943;53.148;8.204;2023-04-26T08:40:12;101784.38;;;13.57;58.14
49216;BME280;45943;53.148;8.204;2023-04-26T08:42:39;101783.03;;;13.51;57.75
49216;BME280;45943;53.148;8.204;2023-04-26T08:45:10;101789.88;;;13.44;58.89
49216;BME280;45943;53.148;8.204;2023-04-26T08:47:38;101803.94;;;13.36;58.78
49216;BME280;45943;53.148;8.204;2023-04-26T08:50:13;101814.84;;;13.11;63.83
49216;BME280;45943;53.148;8.204;2023-04-26T08:52:41;101823.16;;;12.84;73.65
49216;BME280;45943;53.148;8.204;2023-04-26T08:55:08;101838.22;;;12.62;84.76
49216;BME280;45943;53.148;8.204;2023-04-26T08:57:34;101821.06;;;12.40;92.79
49216;BME280;45943;53.148;8.204;2023-04-26T09:00:04;101817.72;;;12.36;100.00
49216;BME280;45943;53.148;8.204;2023-04-26T09:02:34;101822.47;;;12.32;100.00
49216;BME280;45943;53.148;8.204;2023-04-26T09:05:01;101820.09;;;12.28;100.00
49216;BME280;45943;53.148;8.204;2023-04-26T09:07:36;101820.63;;;12.33;100.00
49216;BME280;45943;53.148;8.204;2023-04-26T09:10:05;101823.28;;;12.46;100.00
49216;BME280;45943;53.148;8.204;2023-04-26T09:12:33;101825.00;;;12.59;100.00
49216;BME280;45943;53.148;8.204;2023-04-26T09:14:59;101818.22;;;12.78;100.00
49216;BME280;45943;53.148;8.204;2023-04-26T09:17:26;101826.16;;;12.92;100.00
49216;BME280;45943;53.148;8.204;2023-04-26T09:19:55;101820.31;;;12.98;100.00
49216;BME280;45943;53.148;8.204;2023-04-26T09:22:35;101822.41;;;13.06;100.00
49216;BME280;45943;53.148;8.204;2023-04-26T09:25:02;101820.69;;;13.05;100.00
49216;BME280;45943;53.148;8.204;2023-04-26T09:27:30;101815.50;;;12.90;100.00
49216;BME280;45943;53.148;8.204;2023-04-26T09:32:50;101818.16;;;13.14;97.10
49216;BME280;45943;53.148;8.204;2023-04-26T09:35:35;101818.91;;;13.40;98.57
49216;BME280;45943;53.148;8.204;2023-04-26T09:38:08;101824.88;;;13.68;93.24
49216;BME280;45943;53.148;8.204;2023-04-26T09:43:10;101817.03;;;13.76;81.08
49216;BME280;45943;53.148;8.204;2023-04-26T09:45:45;101823.91;;;14.02;78.59
49216;BME280;45943;53.148;8.204;2023-04-26T09:48:12;101815.56;;;13.83;70.77
49216;BME280;45943;53.148;8.204;2023-04-26T09:50:42;101821.94;;;13.82;71.38
49216;BME280;45943;53.148;8.204;2023-04-26T09:53:34;101820.13;;;13.94;73.87
49216;BME280;45943;53.148;8.204;2023-04-26T09:56:08;101824.16;;;13.88;73.37
49216;BME280;45943;53.148;8.204;2023-04-26T10:01:15;101814.59;;;13.95;69.36
49216;BME280;45943;53.148;8.204;2023-04-26T10:03:43;101811.28;;;14.03;65.28
49216;BME280;45943;53.148;8.204;2023-04-26T10:06:13;101819.75;;;14.10;63.87
49216;BME280;45943;53.148;8.204;2023-04-26T10:08:40;101812.38;;;14.23;65.37
49216;BME280;45943;53.148;8.204;2023-04-26T10:11:06;101820.88;;;14.18;63.74
49216;BME280;45943;53.148;8.204;2023-04-26T10:13:35;101827.47;;;14.14;61.93
49216;BME280;45943;53.148;8.204;2023-04-26T10:16:01;101813.75;;;14.28;62.43
49216;BME280;45943;53.148;8.204;2023-04-26T10:18:28;101815.59;;;14.39;59.81
49216;BME280;45943;53.148;8.204;2023-04-26T10:20:56;101815.47;;;14.52;58.61
49216;BME280;45943;53.148;8.204;2023-04-26T10:23:26;101809.94;;;14.42;56.60
49216;BME280;45943;53.148;8.204;2023-04-26T10:25:53;101804.19;;;14.47;56.79
49216;BME280;45943;53.148;8.204;2023-04-26T10:31:05;101808.19;;;14.63;56.86
49216;BME280;45943;53.148;8.204;2023-04-26T10:33:32;101796.50;;;14.85;59.91
49216;BME280;45943;53.148;8.204;2023-04-26T10:35:59;101802.94;;;15.05;58.04
49216;BME280;45943;53.148;8.204;2023-04-26T10:38:26;101792.72;;;15.30;57.81
49216;BME280;45943;53.148;8.204;2023-04-26T10:40:52;101799.84;;;15.31;57.14
49216;BME280;45943;53.148;8.204;2023-04-26T10:45:44;101800.91;;;15.81;56.46
49216;BME280;45943;53.148;8.204;2023-04-26T10:53:29;101797.16;;;15.72;54.90
49216;BME280;45943;53.148;8.204;2023-04-26T10:58:48;101786.72;;;15.89;54.30
49216;BME280;45943;53.148;8.204;2023-04-26T11:01:31;101793.44;;;15.64;53.86
49216;BME280;45943;53.148;8.204;2023-04-26T11:06:24;101805.66;;;15.26;54.57
49216;BME280;45943;53.148;8.204;2023-04-26T11:08:51;101807.56;;;15.14;56.90
49216;BME280;45943;53.148;8.204;2023-04-26T11:11:18;101817.41;;;15.04;58.36
49216;BME280;45943;53.148;8.204;2023-04-26T11:13:44;101817.16;;;14.75;60.57
49216;BME280;45943;53.148;8.204;2023-04-26T11:16:12;101819.50;;;14.69;62.69
49216;BME280;45943;53.148;8.204;2023-04-26T11:18:42;101819.94;;;14.74;65.10
49216;BME280;45943;53.148;8.204;2023-04-26T11:21:09;101813.56;;;14.75;66.93
49216;BME280;45943;53.148;8.204;2023-04-26T11:23:36;101808.56;;;14.70;67.04
49216;BME280;45943;53.148;8.204;2023-04-26T11:26:06;101812.72;;;14.74;67.52
49216;BME280;45943;53.148;8.204;2023-04-26T11:28:33;101808.16;;;14.75;67.89
49216;BME280;45943;53.148;8.204;2023-04-26T11:31:01;101814.63;;;14.95;68.60
49216;BME280;45943;53.148;8.204;2023-04-26T11:33:28;101807.94;;;15.10;66.83
49216;BME280;45943;53.148;8.204;2023-04-26T11:35:56;101814.41;;;15.18;67.33
49216;BME280;45943;53.148;8.204;2023-04-26T11:38:26;101813.22;;;15.32;67.01
49216;BME280;45943;53.148;8.204;2023-04-26T11:41:00;101811.31;;;15.23;66.36
49216;BME280;45943;53.148;8.204;2023-04-26T11:43:33;101811.34;;;15.44;67.06
49216;BME280;45943;53.148;8.204;2023-04-26T11:46:01;101812.34;;;15.85;67.19
49216;BME280;45943;53.148;8.204;2023-04-26T11:48:28;101807.44;;;15.99;63.72
49216;BME280;45943;53.148;8.204;2023-04-26T11:50:55;101812.53;;;15.93;61.57
49216;BME280;45943;53.148;8.204;2023-04-26T11:53:22;101817.22;;;15.70;60.37
49216;BME280;45943;53.148;8.204;2023-04-26T11:55:49;101815.31;;;15.61;60.56
49216;BME280;45943;53.148;8.204;2023-04-26T11:58:16;101816.41;;;15.37;60.58
49216;BME280;45943;53.148;8.204;2023-04-26T12:00:55;101822.47;;;15.30;62.00
49216;BME280;45943;53.148;8.204;2023-04-26T12:03:22;101813.16;;;15.43;61.74
49216;BME280;45943;53.148;8.204;2023-04-26T12:05:53;101820.75;;;15.49;60.53
49216;BME280;45943;53.148;8.204;2023-04-26T12:08:24;101820.81;;;15.59;60.61
49216;BME280;45943;53.148;8.204;2023-04-26T12:10:51;101815.38;;;15.70;59.62
49216;BME280;45943;53.148;8.204;2023-04-26T12:13:17;101817.47;;;15.88;58.67
49216;BME280;45943;53.148;8.204;2023-04-26T12:15:44;101809.81;;;16.23;58.85
49216;BME280;45943;53.148;8.204;2023-04-26T12:18:11;101807.66;;;16.67;58.38
49216;BME280;45943;53.148;8.204;2023-04-26T12:20:38;101813.84;;;16.88;57.85
49216;BME280;45943;53.148;8.204;2023-04-26T12:23:06;101808.59;;;16.87;56.86
49216;BME280;45943;53.148;8.204;2023-04-26T12:25:34;101813.56;;;16.72;56.62
49216;BME280;45943;53.148;8.204;2023-04-26T12:28:05;101817.91;;;16.54;55.71
49216;BME280;45943;53.148;8.204;2023-04-26T12:30:37;101822.66;;;16.31;55.44
49216;BME280;45943;53.148;8.204;2023-04-26T12:33:04;101822.09;;;16.27;56.05
49216;BME280;45943;53.148;8.204;2023-04-26T12:35:30;101828.22;;;16.70;55.31
49216;BME280;45943;53.148;8.204;2023-04-26T12:37:57;101825.25;;;16.73;54.76
49216;BME280;45943;53.148;8.204;2023-04-26T12:40:26;101828.59;;;16.55;53.98
49216;BME280;45943;53.148;8.204;2023-04-26T12:42:53;101821.81;;;16.30;54.99
49216;BME280;45943;53.148;8.204;2023-04-26T12:45:21;101818.72;;;16.04;54.82
49216;BME280;45943;53.148;8.204;2023-04-26T12:47:48;101820.53;;;15.94;55.68
49216;BME280;45943;53.148;8.204;2023-04-26T12:50:14;101825.03;;;15.84;56.72
49216;BME280;45943;53.148;8.204;2023-04-26T12:52:42;101836.50;;;15.76;57.50
49216;BME280;45943;53.148;8.204;2023-04-26T12:55:09;101839.53;;;15.62;57.61
49216;BME280;45943;53.148;8.204;2023-04-26T12:57:37;101836.41;;;15.46;58.26
49216;BME280;45943;53.148;8.204;2023-04-26T13:00:04;101832.81;;;15.25;57.82
49216;BME280;45943;53.148;8.204;2023-04-26T13:02:32;101836.16;;;15.17;57.36
49216;BME280;45943;53.148;8.204;2023-04-26T13:04:59;101840.22;;;15.11;56.68
49216;BME280;45943;53.148;8.204;2023-04-26T13:07:32;101843.78;;;15.12;56.96
49216;BME280;45943;53.148;8.204;2023-04-26T13:09:59;101844.91;;;15.09;56.29